Time;durP1;ratioP1;P1;durP2;ratioP2;P2;SDS_P1;SDS_P2;PMS_P1;PMS_P2;Temp;Humidity;BMP_temperature;BMP_pressure;BME280_temperature;BME280_humidity;BME280_pressure;Samples;Min_cycle;Max_cycle;Signal;HPM_P1;HPM_P2
2022/02/25 16:03:47;;;;;;;7.80;2.00;;;;;;;;;;5075381;27;20412;-88
2022/02/25 16:06:12;;;;;;;6.50;1.65;;;;;;;5.93;93.93;67436.72;5061080;28;20052;-89
2022/02/25 16:08:37;;;;;;;11.13;2.97;;;;;;;;;;5076124;28;20041;-88
2022/02/25 16:11:03;;;;;;;6.85;1.98;;;;;;;;;;5055990;28;20131;-88
2022/02/25 16:13:28;;;;;;;6.10;1.83;;;;;;;;;;5056681;28;20040;-89
2022/02/25 16:15:53;;;;;;;7.93;1.90;;;;;;;;;;5058293;28;20076;-89
2022/02/25 16:18:19;;;;;;;10.88;2.40;;;;;;;6.05;97.09;67447.09;5058289;28;20068;-87
2022/02/25 16:20:45;;;;;;;8.77;1.67;;;;;;;6.02;95.24;67438.41;5085800;28;20072;-90
2022/02/25 16:23:10;;;;;;;10.18;2.08;;;;;;;6.03;96.10;67445.38;5051123;28;20091;-89
2022/02/25 16:25:36;;;;;;;8.80;2.35;;;;;;;6.04;97.24;67451.81;5085638;28;20045;-88
2022/02/25 16:28:02;;;;;;;5.40;1.77;;;;;;;5.89;95.13;67424.81;5051554;28;20137;-88
2022/02/25 16:30:27;;;;;;;9.00;2.38;;;;;;;5.88;96.14;67423.13;5091782;28;20033;-88
2022/02/25 16:32:52;;;;;;;10.25;2.60;;;;;;;;;;5063618;28;20064;-90
2022/02/25 16:35:18;;;;;;;9.25;2.40;;;;;;;;;;5064473;28;20476;-87
2022/02/25 16:37:43;;;;;;;8.50;2.33;;;;;;;;;;5079333;28;20033;-89
2022/02/25 16:40:10;;;;;;;8.95;2.05;;;;;;;5.72;96.89;67410.31;5065203;28;20132;-89
2022/02/25 16:42:35;;;;;;;7.90;2.50;;;;;;;;;;5073853;28;20480;-87
2022/02/25 16:45:01;;;;;;;7.45;2.30;;;;;;;;;;5054176;28;20052;-89
2022/02/25 16:47:27;;;;;;;7.20;2.28;;;;;;;5.56;97.98;67384.91;5063225;28;20542;-88
2022/02/25 16:49:53;;;;;;;8.35;3.05;;;;;;;5.45;96.69;67380.38;5086419;28;20040;-88
2022/02/25 16:52:19;;;;;;;8.80;3.15;;;;;;;;;;5060013;28;20543;-87
2022/02/25 16:54:45;;;;;;;11.77;5.05;;;;;;;5.41;98.55;67376.44;5072429;28;20037;-88
2022/02/25 16:57:12;;;;;;;9.07;4.40;;;;;;;5.36;99.16;67373.41;5061052;28;20060;-90
2022/02/25 16:59:38;;;;;;;8.95;3.85;;;;;;;5.28;98.88;67362.31;5077029;28;20044;-88
2022/02/25 17:02:04;;;;;;;12.23;3.60;;;;;;;5.22;99.56;67354.97;5071591;28;20136;-89
2022/02/25 17:04:30;;;;;;;10.68;4.97;;;;;;;5.15;99.19;67348.19;5071076;28;20138;-88
2022/02/25 17:06:55;;;;;;;10.75;4.78;;;;;;;5.11;100.00;67346.28;5055057;28;20504;-90
2022/02/25 17:09:21;;;;;;;9.85;3.95;;;;;;;;;;5042043;28;20040;-89
2022/02/25 17:11:50;;;;;;;12.93;3.58;;;;;;;5.02;100.00;67335.56;5032254;28;20055;-89
2022/02/25 17:14:16;;;;;;;12.13;3.40;;;;;;;4.92;99.69;67316.91;5031347;28;20045;-90
2022/02/25 17:16:41;;;;;;;12.73;3.00;;;;;;;;;;5026892;28;20045;-89
2022/02/25 17:19:07;;;;;;;8.95;3.60;;;;;;;;;;5071252;28;20532;-91
2022/02/25 17:21:33;;;;;;;8.75;2.70;;;;;;;;;;5033842;28;20524;-88
2022/02/25 17:23:59;;;;;;;11.98;3.38;;;;;;;4.73;100.00;67303.94;5039124;28;20037;-87
2022/02/25 17:26:37;;;;;;;9.15;3.75;;;;;;;;;;5038950;28;20056;-89
2022/02/25 17:29:21;;;;;;;10.48;3.30;;;;;;;4.67;100.00;67299.81;5040517;28;20045;-88
2022/02/25 17:31:54;;;;;;;10.77;3.28;;;;;;;4.62;100.00;67289.44;5023344;28;20117;-88
2022/02/25 17:34:20;;;;;;;10.30;2.92;;;;;;;4.63;100.00;67290.00;5065228;28;20041;-90
2022/02/25 17:36:46;;;;;;;11.93;2.78;;;;;;;4.66;100.00;67293.41;5040927;28;20044;-90
2022/02/25 17:39:11;;;;;;;11.20;3.17;;;;;;;4.62;100.00;67289.44;5057167;28;20049;-89
2022/02/25 17:41:37;;;;;;;11.82;2.70;;;;;;;4.59;100.00;67286.06;5040707;28;20045;-89
2022/02/25 17:44:03;;;;;;;13.23;4.22;;;;;;;;;;5038287;28;20119;-88
2022/02/25 17:46:28;;;;;;;14.38;5.13;;;;;;;4.49;100.00;67277.44;5046274;28;20485;-87
2022/02/25 17:48:54;;;;;;;12.43;4.65;;;;;;;4.49;100.00;67277.44;5041640;28;20437;-89
2022/02/25 17:51:19;;;;;;;15.50;4.05;;;;;;;4.47;100.00;67272.53;5043013;28;20120;-88
2022/02/25 17:53:44;;;;;;;17.85;4.40;;;;;;;4.44;100.00;67269.69;5064478;28;20095;-88
2022/02/25 17:56:10;;;;;;;16.27;4.25;;;;;;;4.46;100.00;67274.03;5042798;28;20401;-89
2022/02/25 17:58:36;;;;;;;12.05;2.92;;;;;;;4.46;100.00;67271.38;5042602;28;20071;-89
2022/02/25 18:01:03;;;;;;;14.80;4.20;;;;;;;4.45;100.00;67272.91;5037045;28;20279;-90
2022/02/25 18:03:32;;;;;;;14.60;3.70;;;;;;;4.45;100.00;67270.81;5072771;28;20148;-88
2022/02/25 18:06:01;;;;;;;11.43;4.23;;;;;;;;;;5043169;28;20037;-86
2022/02/25 18:08:29;;;;;;;17.23;3.60;;;;;;;4.40;100.00;67267.25;5055912;28;20276;-88
2022/02/25 18:10:55;;;;;;;16.03;4.90;;;;;;;4.35;100.00;67259.53;5040295;28;20036;-87
2022/02/25 18:13:23;;;;;;;14.55;3.60;;;;;;;4.41;100.00;67271.03;5042327;28;20041;-89
2022/02/25 18:15:48;;;;;;;15.25;3.42;;;;;;;;;;5035868;28;20037;-87
2022/02/25 18:18:15;;;;;;;14.15;2.95;;;;;;;4.33;100.00;67262.00;5030664;28;20893;-90
2022/02/25 18:20:42;;;;;;;14.30;4.03;;;;;;;;;;5034621;28;20029;-88
2022/02/25 18:23:09;;;;;;;13.98;4.40;;;;;;;4.23;100.00;67246.56;5035419;28;20071;-87
2022/02/25 18:25:35;;;;;;;16.15;4.53;;;;;;;4.18;100.00;67243.00;5031949;28;20104;-88
2022/02/25 18:28:03;;;;;;;17.75;4.32;;;;;;;4.16;100.00;67238.66;5038604;28;20052;-87
2022/02/25 18:30:29;;;;;;;21.00;5.82;;;;;;;;;;5072402;28;20041;-87
2022/02/25 18:32:54;;;;;;;19.63;4.78;;;;;;;4.05;100.00;67220.97;5039701;28;20443;-88
2022/02/25 18:35:21;;;;;;;19.10;5.70;;;;;;;4.05;100.00;67228.88;5041076;28;20044;-88
2022/02/25 18:37:48;;;;;;;16.85;6.38;;;;;;;;;;5037374;28;20041;-87
2022/02/25 18:40:14;;;;;;;17.65;6.45;;;;;;;;;;5046939;28;20045;-87
2022/02/25 18:42:39;;;;;;;18.95;6.22;;;;;;;3.93;100.00;67212.72;5036432;28;20056;-89
2022/02/25 18:45:06;;;;;;;21.33;5.93;;;;;;;3.90;100.00;67212.50;5022804;28;20124;-88
2022/02/25 18:47:32;;;;;;;20.33;6.70;;;;;;;;;;5068575;28;20052;-88
2022/02/25 18:49:59;;;;;;;14.82;6.05;;;;;;;3.91;100.00;67210.44;5040040;28;20052;-88
2022/02/25 18:52:28;;;;;;;17.88;5.25;;;;;;;3.90;100.00;67211.97;5070002;28;20112;-88
2022/02/25 18:54:53;;;;;;;;;;;;;;;3.86;100.00;67204.81;5026838;28;20107;-88
2022/02/25 18:57:19;;;;;;;21.55;7.53;;;;;;;3.74;100.00;67191.81;5041897;28;19917;-90
2022/02/25 18:59:44;;;;;;;25.35;8.85;;;;;;;3.70;100.00;67189.94;5041922;28;20129;-88
2022/02/25 19:02:11;;;;;;;20.58;7.80;;;;;;;;;;5028420;28;20045;-88
2022/02/25 19:04:38;;;;;;;27.55;7.85;;;;;;;3.72;100.00;67189.59;5044742;28;20478;-87
2022/02/25 19:07:07;;;;;;;25.30;9.65;;;;;;;3.77;100.00;67195.22;5062812;28;20063;-88
2022/02/25 19:09:37;;;;;;;20.17;7.70;;;;;;;3.74;100.00;67192.41;5047942;28;20405;-87
2022/02/25 19:12:03;;;;;;;14.63;5.50;;;;;;;3.75;100.00;67193.53;5045302;28;20061;-89
2022/02/25 19:14:29;;;;;;;23.92;6.85;;;;;;;3.73;100.00;67190.69;5041755;28;20049;-90
2022/02/25 19:16:54;;;;;;;22.38;7.90;;;;;;;3.77;100.00;67198.41;5053040;28;20039;-87
2022/02/25 19:19:20;;;;;;;22.73;6.53;;;;;;;3.72;100.00;67190.16;5053593;28;20041;-90
2022/02/25 19:21:46;;;;;;;24.90;6.63;;;;;;;3.69;100.00;67186.75;5070082;28;20029;-88
2022/02/25 19:24:12;;;;;;;17.08;5.57;;;;;;;;;;5041794;28;20037;-89
2022/02/25 19:26:37;;;;;;;16.08;5.45;;;;;;;3.61;100.00;67183.56;5045545;28;20477;-88
2022/02/25 19:29:04;;;;;;;20.63;5.20;;;;;;;3.59;100.00;67175.47;5071304;28;20258;-89
2022/02/25 19:31:29;;;;;;;18.42;8.13;;;;;;;3.64;100.00;67180.56;5047390;28;20045;-89
2022/02/25 19:33:55;;;;;;;18.95;4.90;;;;;;;3.63;100.00;67180.00;5035390;28;20052;-90
2022/02/25 19:36:21;;;;;;;31.08;7.05;;;;;;;3.60;100.00;67176.59;5041920;28;20041;-88
2022/02/25 19:38:47;;;;;;;20.73;5.88;;;;;;;3.61;100.00;67180.38;5064279;28;20503;-89
2022/02/25 19:41:13;;;;;;;13.55;5.18;;;;;;;;;;5048866;28;20045;-87
2022/02/25 19:43:38;;;;;;;26.83;6.60;;;;;;;3.62;100.00;67178.84;5045591;28;20478;-90
2022/02/25 19:46:05;;;;;;;23.90;6.25;;;;;;;3.58;100.00;67174.34;5061662;28;20040;-91
2022/02/25 19:48:31;;;;;;;18.17;5.55;;;;;;;3.61;100.00;67183.56;5045537;28;20040;-89
2022/02/25 19:50:56;;;;;;;19.58;5.60;;;;;;;3.60;100.00;67176.59;5032289;28;20037;-88
2022/02/25 19:53:22;;;;;;;21.25;6.38;;;;;;;3.60;100.00;67179.25;5040322;28;20033;-89
2022/02/25 19:55:47;;;;;;;22.83;5.95;;;;;;;;;;5044148;28;20502;-88
2022/02/25 19:58:13;;;;;;;17.50;6.05;;;;;;;3.51;100.00;67167.03;5042898;28;20115;-89
2022/02/25 20:00:39;;;;;;;23.40;8.35;;;;;;;3.52;100.00;67167.59;5042395;28;20523;-87
2022/02/25 20:03:06;;;;;;;24.00;6.70;;;;;;;;;;5039632;28;20104;-90
2022/02/25 20:05:32;;;;;;;19.30;7.03;;;;;;;3.48;100.00;67163.63;5041964;28;20496;-89
2022/02/25 20:07:57;;;;;;;22.38;5.65;;;;;;;3.47;100.00;67161.94;5050137;28;20045;-88
2022/02/25 20:10:24;;;;;;;15.35;6.50;;;;;;;3.41;100.00;67157.81;5046106;28;20041;-88
2022/02/25 20:12:50;;;;;;;20.92;6.72;;;;;;;3.36;100.00;67150.66;5047843;28;20772;-89
2022/02/25 20:15:16;;;;;;;22.38;9.95;;;;;;;3.36;100.00;67155.91;5042489;28;20057;-89
2022/02/25 20:17:42;;;;;;;25.13;9.32;;;;;;;3.26;100.00;67141.47;5046490;28;20095;-89
2022/02/25 20:20:08;;;;;;;27.17;9.05;;;;;;;;;;5029306;28;20099;-88
2022/02/25 20:22:34;;;;;;;20.45;7.22;;;;;;;3.17;100.00;67131.88;5038209;28;20049;-88
2022/02/25 20:25:00;;;;;;;28.40;8.45;;;;;;;3.25;100.00;67138.25;5038858;28;20396;-90
2022/02/25 20:27:26;;;;;;;22.80;8.98;;;;;;;3.26;100.00;67144.09;5081228;28;20052;-89
2022/02/25 20:29:51;;;;;;;18.98;6.75;;;;;;;3.20;100.00;67134.69;5044467;28;20037;-89
2022/02/25 20:32:17;;;;;;;22.75;8.57;;;;;;;3.19;100.00;67134.09;5047742;28;20040;-88
2022/02/25 20:34:42;;;;;;;24.00;7.78;;;;;;;3.14;100.00;67129.06;5036827;28;20045;-87
2022/02/25 20:37:09;;;;;;;25.67;9.57;;;;;;;3.07;100.00;67118.50;5059846;28;20405;-87
2022/02/25 20:39:35;;;;;;;23.98;9.40;;;;;;;3.07;100.00;67117.97;5059658;28;20037;-89
2022/02/25 20:42:00;;;;;;;39.60;18.02;;;;;;;3.05;100.00;67116.28;5039272;28;20037;-88
2022/02/25 20:44:26;;;;;;;23.52;6.20;;;;;;;2.99;100.00;67111.56;5038767;28;20486;-87
2022/02/25 20:46:52;;;;;;;18.13;6.00;;;;;;;2.97;100.00;67109.88;5022197;28;20040;-88
2022/02/25 20:49:18;;;;;;;16.60;6.75;;;;;;;2.93;100.00;67105.34;5034227;28;20564;-89
2022/02/25 20:51:43;;;;;;;24.20;10.77;;;;;;;;;;5051930;28;20051;-90
2022/02/25 20:54:09;;;;;;;24.65;9.90;;;;;;;2.94;100.00;67104.44;5048129;28;20128;-89
2022/02/25 20:56:35;;;;;;;27.58;7.43;;;;;;;2.86;100.00;67094.84;5061955;28;20042;-90
2022/02/25 20:59:00;;;;;;;21.90;6.15;;;;;;;2.78;100.00;67085.81;5041823;28;20087;-89
2022/02/25 21:01:25;;;;;;;19.52;6.05;;;;;;;;;;5040186;28;20062;-88
2022/02/25 21:03:51;;;;;;;25.42;7.03;;;;;;;2.77;100.00;67087.34;5045987;28;20478;-88
2022/02/25 21:06:17;;;;;;;14.63;5.40;;;;;;;2.73;100.00;67075.50;5045313;28;20037;-87
2022/02/25 21:08:42;;;;;;;22.65;7.55;;;;;;;2.80;100.00;67091.28;5052956;28;20041;-88
2022/02/25 21:11:09;;;;;;;28.60;6.95;;;;;;;2.80;100.00;67088.09;5037618;28;20083;-89
2022/02/25 21:13:34;;;;;;;17.00;5.38;;;;;;;;;;5065590;28;20242;-87
2022/02/25 21:16:00;;;;;;;19.77;5.43;;;;;;;2.63;100.00;67070.03;5048347;28;20485;-88
2022/02/25 21:18:27;;;;;;;17.00;5.72;;;;;;;2.62;100.00;67073.63;5050752;28;20051;-88
2022/02/25 21:20:53;;;;;;;21.17;6.35;;;;;;;2.66;100.00;67076.06;5079362;28;20037;-88
2022/02/25 21:23:19;;;;;;;25.63;6.50;;;;;;;2.68;100.00;67078.31;5059468;28;20044;-90
2022/02/25 21:25:45;;;;;;;14.60;4.90;;;;;;;2.58;100.00;67063.84;5067597;28;20045;-89
2022/02/25 21:28:12;;;;;;;18.63;5.43;;;;;;;2.58;100.00;67069.09;5048278;28;20061;-88
2022/02/25 21:30:37;;;;;;;17.40;5.32;;;;;;;2.56;100.00;67061.59;5039467;28;20044;-87
2022/02/25 21:33:03;;;;;;;28.17;6.97;;;;;;;2.56;100.00;67061.59;5044061;28;20046;-88
2022/02/25 21:35:28;;;;;;;15.00;4.70;;;;;;;2.51;100.00;67061.22;5039186;28;20033;-89
2022/02/25 21:37:55;;;;;;;20.85;5.63;;;;;;;2.48;100.00;67053.16;5038190;28;20051;-89
2022/02/25 21:40:23;;;;;;;22.35;6.70;;;;;;;2.53;100.00;67058.22;5045020;28;20033;-87
2022/02/25 21:42:50;;;;;;;16.48;5.68;;;;;;;2.52;100.00;67057.09;5050914;28;20128;-88
2022/02/25 21:45:17;;;;;;;21.63;6.63;;;;;;;2.51;100.00;67059.16;5046050;28;20044;-87
2022/02/25 21:47:43;;;;;;;21.23;7.20;;;;;;;;;;5062413;28;20034;-90
2022/02/25 21:50:11;;;;;;;20.35;7.13;;;;;;;2.50;100.00;67055.38;5076894;28;20525;-87
2022/02/25 21:52:38;;;;;;;31.35;8.10;;;;;;;2.49;100.00;67054.28;5041006;28;20673;-88
2022/02/25 21:55:05;;;;;;;21.02;6.30;;;;;;;2.50;100.00;67060.66;5047539;28;20133;-89
2022/02/25 21:57:30;;;;;;;23.17;5.03;;;;;;;;;;5058685;28;20068;-89
2022/02/25 21:59:56;;;;;;;21.33;5.03;;;;;;;;;;5038710;28;20087;-90
2022/02/25 22:02:21;;;;;;;22.02;5.47;;;;;;;2.55;100.00;67060.47;5044533;28;20041;-87
2022/02/25 22:04:47;;;;;;;20.65;5.22;;;;;;;2.58;100.00;67066.47;5047812;28;20524;-89
2022/02/25 22:07:12;;;;;;;15.43;4.97;;;;;;;2.57;100.00;67065.91;5065255;28;20051;-89
2022/02/25 22:09:37;;;;;;;22.52;4.80;;;;;;;2.58;100.00;67069.09;5047659;28;20033;-86
2022/02/25 22:12:03;;;;;;;17.73;4.95;;;;;;;;;;5043744;28;20061;-88
2022/02/25 22:14:28;;;;;;;27.55;5.85;;;;;;;2.59;100.00;67065.56;5040961;28;20046;-89
2022/02/25 22:16:54;;;;;;;23.15;5.05;;;;;;;2.55;100.00;67060.47;5047478;28;20044;-89
2022/02/25 22:19:19;;;;;;;18.75;5.63;;;;;;;2.55;100.00;67061.03;5030649;28;20037;-89
2022/02/25 22:21:44;;;;;;;19.83;4.10;;;;;;;2.59;100.00;67064.97;5044278;28;20099;-88
2022/02/25 22:24:10;;;;;;;28.92;5.35;;;;;;;2.57;100.00;67062.72;5063116;28;20040;-88
2022/02/25 22:26:37;;;;;;;25.45;4.53;;;;;;;2.45;100.00;67050.34;5044310;28;20038;-89
2022/02/25 22:29:04;;;;;;;16.73;3.78;;;;;;;2.40;100.00;67044.69;5039935;28;20455;-90
2022/02/25 22:31:30;;;;;;;21.20;4.70;;;;;;;2.37;100.00;67041.31;5049772;28;20064;-88
2022/02/25 22:33:55;;;;;;;18.23;4.22;;;;;;;2.39;100.00;67043.56;5046848;28;20076;-88
2022/02/25 22:36:20;;;;;;;24.80;5.78;;;;;;;2.38;100.00;67044.50;5056523;28;20482;-89
2022/02/25 22:38:46;;;;;;;19.05;4.75;;;;;;;2.32;100.00;67040.94;5056083;28;20045;-87
2022/02/25 22:41:14;;;;;;;24.33;5.57;;;;;;;2.30;100.00;67033.41;5046585;28;20045;-89
2022/02/25 22:43:40;;;;;;;23.55;6.25;;;;;;;2.33;100.00;67038.84;5041294;28;20045;-87
2022/02/25 22:46:05;;;;;;;29.55;6.00;;;;;;;2.23;100.00;67028.72;5047163;28;20110;-86
2022/02/25 22:48:31;;;;;;;20.50;5.53;;;;;;;;;;5030884;28;20041;-89
2022/02/25 23:01:53;;;;;;;20.88;5.88;;;;;;;;;;5057156;28;20047;-86
2022/02/25 23:04:18;;;;;;;18.73;4.88;;;;;;;2.06;100.00;67006.94;5048589;28;20045;-89
2022/02/25 23:07:02;;;;;;;27.02;5.22;;;;;;;2.11;100.00;67012.59;5046281;28;20037;-88
2022/02/25 23:09:28;;;;;;;19.13;5.07;;;;;;;2.03;100.00;67006.75;5055165;28;20044;-90
2022/02/25 23:11:53;;;;;;;18.70;4.38;;;;;;;1.96;100.00;67001.50;5027720;28;20045;-87
2022/02/25 23:14:19;;;;;;;22.02;4.97;;;;;;;1.95;100.00;66989.31;5019801;28;20308;-89
2022/02/25 23:16:44;;;;;;;21.35;4.97;;;;;;;1.83;100.00;66981.03;5043971;28;20044;-88
2022/02/25 23:19:10;;;;;;;28.08;6.00;;;;;;;1.75;100.00;66975.22;5041273;28;20500;-90
2022/02/25 23:21:36;;;;;;;25.50;8.05;;;;;;;;;;5049343;28;20040;-89
2022/02/25 23:24:01;;;;;;;33.60;10.75;;;;;;;1.50;100.00;66945.56;5038913;28;20045;-91
2022/02/25 23:26:29;;;;;;;27.85;8.38;;;;;;;1.43;100.00;66937.69;5033659;28;20110;-88
2022/02/25 23:28:54;;;;;;;26.02;6.57;;;;;;;1.41;100.00;66937.50;5037679;28;20073;-90
2022/02/25 23:31:20;;;;;;;24.52;7.13;;;;;;;1.36;100.00;66932.44;5050750;28;20061;-89
2022/02/25 23:33:45;;;;;;;25.60;8.90;;;;;;;1.34;100.00;66930.19;5037970;28;20053;-88
2022/02/25 23:36:10;;;;;;;34.67;9.38;;;;;;;1.23;100.00;66917.78;5038977;28;20076;-88
2022/02/25 23:38:36;;;;;;;30.30;9.15;;;;;;;1.21;100.00;66912.91;5032854;28;20041;-87
2022/02/25 23:41:02;;;;;;;27.50;8.00;;;;;;;1.15;100.00;66908.78;5039948;28;20034;-89
2022/02/25 23:43:28;;;;;;;28.80;8.15;;;;;;;1.06;100.00;66899.78;5059867;28;20144;-91
2022/02/25 23:45:53;;;;;;;22.48;8.57;;;;;;;1.13;100.00;66907.66;5039858;28;20466;-86
2022/02/25 23:48:20;;;;;;;30.40;9.27;;;;;;;1.30;100.00;66923.06;5059760;28;20052;-89
2022/02/25 23:50:45;;;;;;;24.63;7.63;;;;;;;1.32;100.00;66925.88;5030479;28;20486;-87
2022/02/25 23:53:11;;;;;;;24.08;7.13;;;;;;;1.44;100.00;66938.81;5041907;28;20044;-89
2022/02/25 23:55:37;;;;;;;19.77;7.07;;;;;;;1.43;100.00;66940.31;5062208;28;20051;-88
2022/02/25 23:58:02;;;;;;;23.95;7.55;;;;;;;1.33;100.00;66926.44;5051582;28;20041;-90
